Vermillion, KS (66544)

3:20 AM CDT on March 25, 2017 (GMT -0500)
Southern Seneca | | Change Station

Elev 1148 ft 39.83 °N, 96.07 °W | Updated 33 seconds ago

Overcast
Overcast
43.7 °F
Feels Like 44 °F
N
2.7
Wind Variable Wind from NW
Gusts 6.7 mph

Today
High -- | Low -- °F
--% Chance of Precip.
Yesterday
High -- | Low -- °F
Precip. -- in
Pressure 29.83 in
Visibility 10.0 miles
Clouds Overcast 800 ft
Windchill 44 °F
Dew Point 42 °F
Humidity 95%
Rainfall 0.04 in
Snow Depth Not available.
7:19 AM 7:42 PM
Waning Crescent, 10% visible
METAR KFNB 250753Z AUTO 01010KT 10SM OVC008 07/06 A2983 RMK AO2 SLP099 T00720061
Pressure 29.83 in
Visibility 10.0 miles
Clouds Overcast 800 ft
Windchill 44 °F
Dew Point 42 °F
Humidity 95%
Rainfall 0.04 in
Snow Depth Not available.
7:19 AM 7:42 PM
Waning Crescent, 10% visible
METAR KFNB 250753Z AUTO 01010KT 10SM OVC008 07/06 A2983 RMK AO2 SLP099 T00720061

Get Severe Weather Alerts

Thanks for signing up!

Be on the lookout for a verification email in your inbox.

You'll start receiving the daily forecast at 8 AM.

×

10-Day Weather Forecast

Almanac

Astronomy

Mar. 25, 2017 Rise Set
Actual Time
Civil Twilight
Nautical Twilight
Astronomical Twilight
Moon
Length of Visible Light
Length of Day
Tomorrow will be .
, % of the Moon is Illuminated

Today's Extremes

State Highs State Lows

Community

WunderPhotos

Upload Photos

1,962,540 photos uploaded!

WunderBlog® & News

Nearby

Air Quality

  Air Quality AQ Index Pollutant
Not available.

Snow Depth

Station Depth Elevation

Earthquake Activity

City Distance Mag. Time & Date
Minimum magnitude displayed is 2.5.

Earthquake Activity

City Distance Mag. Time & Date
Minimum magnitude displayed is 2.5.

Coastal Water Temperatures

Place Temperature

Stations

Nearby Weather Stations

Station Location Temp. Windchill Dew Point Humidity Wind Precip. Elev Updated Type
                   

Watches & Warnings

There are currently no watches in effect.